Berit — 5BLR3 — position and weather

sailwx.info

Track history (hours):
 
Tides and Currents Weather Stations Pressure Air Temp Water Temp Dewpoint Dewpoint Depression Visibility Wind Speed Wind Dir Waves Ship Positions

Berit

Last reported at 2017-Dec-16 12:30 UTC. Time now 2017-Dec-16 12:51 UTC.
Position N 53°28' W 003°02'.

Length 135 m; draft 6.9 m.

Type: Cargo ship. MMSI: 209176832.

Date/timePositionNaut miles runAvg speedWind from/ knotsBaromVisibWave heightAir tempDewpointWater temp
2017-Dec-16 12:30N 53°28' W 003°02'0 0.0
2017-Dec-16 12:00N 53°28' W 003°02'0 0.0
2017-Dec-16 11:30N 53°28' W 003°02'0 0.0
2017-Dec-16 11:00N 53°28' W 003°02'0 0.0
2017-Dec-16 10:30N 53°28' W 003°02'0 0.0
2017-Dec-16 10:00N 53°28' W 003°02'0 0.0
2017-Dec-16 09:30N 53°28' W 003°02'0 0.0
2017-Dec-16 09:00N 53°28' W 003°02'0 0.0
2017-Dec-16 08:30N 53°28' W 003°02'0 0.0
2017-Dec-16 08:00N 53°28' W 003°02'0 0.0
2017-Dec-16 07:30N 53°28' W 003°02'0 0.0
2017-Dec-16 07:00N 53°28' W 003°02'0 0.0
2017-Dec-16 06:30N 53°28' W 003°02'0 0.0
2017-Dec-16 06:00N 53°28' W 003°02'0 0.0
2017-Dec-16 05:30N 53°28' W 003°02'0 0.0
2017-Dec-16 05:00N 53°28' W 003°02'0 0.0
2017-Dec-16 04:30N 53°28' W 003°02'0 0.0
2017-Dec-16 04:00N 53°28' W 003°02'0 0.0
2017-Dec-16 03:30N 53°28' W 003°02'0 0.0
2017-Dec-16 03:00N 53°28' W 003°02'0 0.0
2017-Dec-16 02:30N 53°28' W 003°02'0 0.0
2017-Dec-16 02:00N 53°28' W 003°02'0 0.0
2017-Dec-16 01:30N 53°28' W 003°02'0 0.0
2017-Dec-16 01:00N 53°28' W 003°02'0 0.0
2017-Dec-16 00:30N 53°28' W 003°02'0 0.0
2017-Dec-16 00:00N 53°28' W 003°02'0 0.0
2017-Dec-15 23:30N 53°28' W 003°02'0 0.0
2017-Dec-15 23:00N 53°28' W 003°02'0 0.0
2017-Dec-15 22:30N 53°28' W 003°02'0 0.0
2017-Dec-15 22:00N 53°28' W 003°02'0 0.0
2017-Dec-15 21:30N 53°28' W 003°02'0 0.0
2017-Dec-15 21:00N 53°28' W 003°02'0 0.0
2017-Dec-15 20:30N 53°28' W 003°02'0 0.0
2017-Dec-15 20:00N 53°28' W 003°02'0 0.0
2017-Dec-15 19:30N 53°28' W 003°02'0 0.1
2017-Dec-15 19:00N 53°28' W 003°02'0 0.4
2017-Dec-15 18:28N 53°28' W 003°02'0 0.0
2017-Dec-15 17:58N 53°28' W 003°02'0 0.0
2017-Dec-15 17:28N 53°28' W 003°02'0 0.0
2017-Dec-15 16:58N 53°28' W 003°02'0 0.0
2017-Dec-15 16:28N 53°28' W 003°02'0 0.0
2017-Dec-15 15:58N 53°28' W 003°02'0 0.0
2017-Dec-15 15:28N 53°28' W 003°02'0 0.0
2017-Dec-15 14:58N 53°28' W 003°02'0 0.0
2017-Dec-15 14:28N 53°28' W 003°02'0 0.0
2017-Dec-15 13:58N 53°28' W 003°02'0 0.0
2017-Dec-15 13:28N 53°28' W 003°02'0 0.0
2017-Dec-15 12:58N 53°28' W 003°02'0 0.0
2017-Dec-15 12:28N 53°28' W 003°02'0 0.0
2017-Dec-15 11:58N 53°28' W 003°02'1 1.4
2017-Dec-15 11:29N 53°27' W 003°01'0 0.2
2017-Dec-15 11:00N 53°27' W 003°01'0 0.3
2017-Dec-15 10:30N 53°27' W 003°01'3 5.2
2017-Dec-15 10:00N 53°29' W 003°05'510.1
2017-Dec-15 09:30N 53°31' W 003°12'510.7
2017-Dec-15 09:00N 53°33' W 003°20'2 3.3
2017-Dec-15 08:31N 53°31' W 003°20'611.4
2017-Dec-15 08:00N 53°31' W 003°29'817.0
2017-Dec-15 07:30N 53°30' W 003°43'918.3
2017-Dec-15 07:00N 53°27' W 003°58'155 4.9
2017-Dec-13 23:21N 51°09' W 005°51'411.1
2017-Dec-13 22:58N 51°04' W 005°52'511.2
2017-Dec-13 22:30N 50°59' W 005°52'611.4
2017-Dec-13 21:59N 50°53' W 005°53'611.1
2017-Dec-13 21:27N 50°47' W 005°53'510.8
2017-Dec-13 21:00N 50°42' W 005°53'510.8
2017-Dec-13 20:30N 50°37' W 005°54'510.5
2017-Dec-13 20:00N 50°32' W 005°54'510.5
2017-Dec-13 19:30N 50°27' W 005°54'5 9.9
2017-Dec-13 18:59N 50°22' W 005°54'5 9.8
2017-Dec-13 18:30N 50°17' W 005°54'5 9.8
2017-Dec-13 18:00N 50°12' W 005°54'510.2
2017-Dec-13 17:30N 50°07' W 005°54'66115.4
2017-Dec-11 22:38N 39°28' W 009°50'211.1
2017-Dec-11 22:27N 39°26' W 009°50'511.1
2017-Dec-11 22:00N 39°21' W 009°51'510.7
2017-Dec-11 21:30N 39°16' W 009°51'610.9
2017-Dec-11 21:00N 39°10' W 009°50'510.9
2017-Dec-11 20:30N 39°05' W 009°50'510.3
2017-Dec-11 20:00N 38°60' W 009°51'510.4
2017-Dec-11 19:30N 38°54' W 009°51'5 9.9
2017-Dec-11 19:00N 38°49' W 009°51'510.8
2017-Dec-11 18:30N 38°44' W 009°50'612.0
2017-Dec-11 18:00N 38°38' W 009°48'5 9.9
2017-Dec-11 17:30N 38°34' W 009°45'611.5
2017-Dec-11 17:00N 38°31' W 009°39'510.3
2017-Dec-11 16:30N 38°29' W 009°33'5 9.4
2017-Dec-11 16:01N 38°26' W 009°28'611.5
2017-Dec-11 15:31N 38°22' W 009°22'611.9
2017-Dec-11 15:00N 38°21' W 009°15'713.1
2017-Dec-11 14:30N 38°22' W 009°07'4 9.0
2017-Dec-11 14:00N 38°25' W 009°02'714.3
2017-Dec-11 13:30N 38°30' W 008°55'2 4.7
2017-Dec-11 12:59N 38°31' W 008°52'0 0.0
2017-Dec-11 12:26N 38°31' W 008°52'0 0.0
2017-Dec-11 11:53N 38°31' W 008°52'0 0.0
2017-Dec-11 11:26N 38°31' W 008°52'0 0.0
2017-Dec-11 11:00N 38°31' W 008°52'0 0.0
2017-Dec-11 10:30N 38°31' W 008°52'0 0.0
2017-Dec-11 10:00N 38°31' W 008°52'0 0.0
2017-Dec-11 09:30N 38°31' W 008°52'0 0.0
2017-Dec-11 09:00N 38°31' W 008°52'0 0.0
2017-Dec-11 08:30N 38°31' W 008°52'0 0.0
2017-Dec-11 08:00N 38°31' W 008°52'0 0.0
2017-Dec-11 07:30N 38°31' W 008°52'0 0.0
2017-Dec-11 07:00N 38°31' W 008°52'0 0.0
2017-Dec-11 06:30N 38°31' W 008°52'0 0.0
2017-Dec-11 06:00N 38°31' W 008°52'0 0.0
2017-Dec-11 05:30N 38°31' W 008°52'0 0.0
2017-Dec-11 05:00N 38°31' W 008°52'0 0.0
2017-Dec-11 04:30N 38°31' W 008°52'0 0.0
2017-Dec-11 04:00N 38°31' W 008°52'0 0.0
2017-Dec-11 03:30N 38°31' W 008°52'0 0.0
2017-Dec-11 03:00N 38°31' W 008°52'0 0.0
2017-Dec-11 02:30N 38°31' W 008°52'0 0.0
2017-Dec-11 02:00N 38°31' W 008°52'0 0.0
2017-Dec-11 01:30N 38°31' W 008°52'0 0.0
2017-Dec-11 01:00N 38°31' W 008°52'0 0.0
2017-Dec-11 00:30N 38°31' W 008°52'0 0.0
2017-Dec-11 00:00N 38°31' W 008°52'0 0.0
2017-Dec-10 23:30N 38°31' W 008°52'0 0.0
2017-Dec-10 23:00N 38°31' W 008°52'0 0.0
2017-Dec-10 22:30N 38°31' W 008°52'0 0.0
2017-Dec-10 22:01N 38°31' W 008°52'0 0.0
2017-Dec-10 21:31N 38°31' W 008°52'0 0.0
2017-Dec-10 21:01N 38°31' W 008°52'0 0.0
2017-Dec-10 20:30N 38°31' W 008°52'0 0.0
2017-Dec-10 20:00N 38°31' W 008°52'0 0.0
2017-Dec-10 19:30N 38°31' W 008°52'0 0.0
2017-Dec-10 19:00N 38°31' W 008°52'0 0.0
2017-Dec-10 18:30N 38°31' W 008°52'0 0.0
2017-Dec-10 18:00N 38°31' W 008°52'0 0.0
2017-Dec-10 17:30N 38°31' W 008°52'0 0.0
2017-Dec-10 17:00N 38°31' W 008°52'0 0.0
2017-Dec-10 16:30N 38°31' W 008°52'0 0.0
2017-Dec-10 16:00N 38°31' W 008°52'0 0.0
2017-Dec-10 15:30N 38°31' W 008°52'0 0.0
2017-Dec-10 15:00N 38°31' W 008°52'0 0.0
2017-Dec-10 14:30N 38°31' W 008°52'0 0.0
2017-Dec-10 14:00N 38°31' W 008°52'0 0.0
2017-Dec-10 13:30N 38°31' W 008°52'0 0.0
2017-Dec-10 13:00N 38°31' W 008°52'0 0.0
2017-Dec-10 12:30N 38°31' W 008°52'0 0.0
2017-Dec-10 12:00N 38°31' W 008°52'0 0.0
2017-Dec-10 11:30N 38°31' W 008°52'0 0.0
2017-Dec-10 11:00N 38°31' W 008°52'0 0.0
2017-Dec-10 10:30N 38°31' W 008°52'0 0.0
2017-Dec-10 10:00N 38°31' W 008°52'0 0.0
2017-Dec-10 09:30N 38°31' W 008°52'0 0.0
2017-Dec-10 09:00N 38°31' W 008°52'0 0.0
2017-Dec-10 08:31N 38°31' W 008°52'0 0.0
2017-Dec-10 08:00N 38°31' W 008°52'0 0.0
2017-Dec-10 07:31N 38°31' W 008°52'0 0.0
2017-Dec-10 07:00N 38°31' W 008°52'0 0.3
2017-Dec-10 06:30N 38°31' W 008°52'4 8.1
2017-Dec-10 06:00N 38°28' W 008°57'611.7
2017-Dec-10 05:30N 38°23' W 009°00'714.2
2017-Dec-10 05:00N 38°16' W 008°60'816.1
2017-Dec-10 04:30N 38°08' W 008°59'917.0
2017-Dec-10 04:00N 38°00' W 008°56'713.3
2017-Dec-10 03:30N 37°55' W 008°51'1 2.8
2017-Dec-10 03:00N 37°56' W 008°51'0 0.0
2017-Dec-10 02:30N 37°56' W 008°51'0 0.0
2017-Dec-10 01:48N 37°56' W 008°51'0 0.0
2017-Dec-10 01:27N 37°56' W 008°51'0 0.0
2017-Dec-10 01:00N 37°56' W 008°51'0 0.0
2017-Dec-10 00:30N 37°56' W 008°51'0 0.0
2017-Dec-10 00:00N 37°56' W 008°51'0 0.0
2017-Dec-09 23:27N 37°56' W 008°51'0 0.0
2017-Dec-09 23:00N 37°56' W 008°51'0 0.0
2017-Dec-09 22:30N 37°56' W 008°51'0 0.0
2017-Dec-09 22:00N 37°56' W 008°51'0 0.0
2017-Dec-09 21:30N 37°56' W 008°51'0 0.0
2017-Dec-09 20:57N 37°56' W 008°51'0 0.0
2017-Dec-09 20:30N 37°56' W 008°51'0 0.0
2017-Dec-09 20:00N 37°56' W 008°51'0 0.0
2017-Dec-09 19:27N 37°56' W 008°51'0 0.0
2017-Dec-09 18:51N 37°56' W 008°51'0 0.0
2017-Dec-09 18:30N 37°56' W 008°51'0 0.0
2017-Dec-09 18:00N 37°56' W 008°51'0 0.0
2017-Dec-09 17:27N 37°56' W 008°51'0 0.0
2017-Dec-09 16:57N 37°56' W 008°51'0 0.0
2017-Dec-09 16:24N 37°56' W 008°51'0 0.0
2017-Dec-09 16:00N 37°56' W 008°51'0 0.0
2017-Dec-09 15:30N 37°56' W 008°51'0 0.0
2017-Dec-09 14:57N 37°56' W 008°51'0 0.0
2017-Dec-09 14:30N 37°56' W 008°51'0 0.0
2017-Dec-09 14:00N 37°56' W 008°51'0 0.0
2017-Dec-09 13:30N 37°56' W 008°51'0 1.0
2017-Dec-09 13:00N 37°56' W 008°51'4 7.3
2017-Dec-09 12:31N 37°56' W 008°55'918.7
2017-Dec-09 12:01N 38°03' W 009°03'918.7
2017-Dec-09 11:31N 38°10' W 009°11'918.7
2017-Dec-09 11:01N 38°17' W 009°19'918.2
2017-Dec-09 10:30N 38°25' W 009°26'917.3
2017-Dec-09 10:01N 38°31' W 009°33'917.4
2017-Dec-09 09:30N 38°37' W 009°41'816.8
2017-Dec-09 09:01N 38°45' W 009°43'917.5
2017-Dec-09 08:30N 38°54' W 009°43'918.0
2017-Dec-09 08:01N 39°03' W 009°43'917.6
2017-Dec-09 07:30N 39°12' W 009°42'817.0
2017-Dec-09 07:01N 39°20' W 009°43'917.0
2017-Dec-09 06:31N 39°29' W 009°43'9717.1
2017-Dec-09 00:49N 40°58' W 008°51'618.1
2017-Dec-09 00:30N 41°03' W 008°48'816.1
2017-Dec-09 00:00N 41°10' W 008°42'2 3.7
2017-Dec-08 23:28N 41°12' W 008°41'0 0.0
2017-Dec-08 22:58N 41°12' W 008°41'0 0.0
2017-Dec-08 22:25N 41°12' W 008°41'0 0.0
2017-Dec-08 21:58N 41°12' W 008°41'0 0.0
2017-Dec-08 21:28N 41°12' W 008°41'0 0.0
2017-Dec-08 20:58N 41°12' W 008°41'0 0.0
2017-Dec-08 20:28N 41°12' W 008°41'0 0.0
2017-Dec-08 19:58N 41°12' W 008°41'0 0.0
2017-Dec-08 19:28N 41°12' W 008°41'0 0.0
2017-Dec-08 18:58N 41°12' W 008°41'0 0.0
2017-Dec-08 18:28N 41°12' W 008°41'0 0.0
2017-Dec-08 17:58N 41°12' W 008°41'0 0.0
2017-Dec-08 17:28N 41°12' W 008°41'0 0.0
2017-Dec-08 16:49N 41°12' W 008°41'0 0.0
2017-Dec-08 16:28N 41°12' W 008°41'0 0.0
2017-Dec-08 15:58N 41°12' W 008°41'0 0.0
2017-Dec-08 15:28N 41°12' W 008°41'0 0.0
2017-Dec-08 14:58N 41°12' W 008°41'0 0.0
2017-Dec-08 14:28N 41°12' W 008°41'0 0.0
2017-Dec-08 13:58N 41°12' W 008°41'0 0.0
2017-Dec-08 13:28N 41°12' W 008°41'0 0.0
2017-Dec-08 12:58N 41°12' W 008°41'0 0.0
2017-Dec-08 12:28N 41°12' W 008°41'0 0.0
2017-Dec-08 11:58N 41°12' W 008°41'0 0.0
2017-Dec-08 11:28N 41°12' W 008°41'0 0.0
2017-Dec-08 10:58N 41°12' W 008°41'0 0.0
2017-Dec-08 10:22N 41°12' W 008°41'0 0.0
2017-Dec-08 09:58N 41°12' W 008°41'0 0.0
2017-Dec-08 09:28N 41°12' W 008°41'0 0.0
2017-Dec-08 08:58N 41°12' W 008°41'0 0.0
2017-Dec-08 08:28N 41°12' W 008°41'0 0.0
2017-Dec-08 07:58N 41°12' W 008°41'0 0.0
2017-Dec-08 07:28N 41°12' W 008°41'0 0.0
2017-Dec-08 06:58N 41°12' W 008°41'0 0.0
2017-Dec-08 06:28N 41°12' W 008°41'0 0.0
2017-Dec-08 05:58N 41°12' W 008°41'0 0.0
2017-Dec-08 05:28N 41°12' W 008°41'0 0.0
2017-Dec-08 04:58N 41°12' W 008°41'0 0.0
2017-Dec-08 04:28N 41°12' W 008°41'0 0.0
2017-Dec-08 04:00N 41°12' W 008°41'0 0.0
2017-Dec-08 03:27N 41°12' W 008°41'0 0.0
2017-Dec-08 03:00N 41°12' W 008°41'0 0.0
2017-Dec-08 02:30N 41°12' W 008°41'0 0.0
2017-Dec-08 01:57N 41°12' W 008°41'0 0.0
2017-Dec-08 01:30N 41°12' W 008°41'0 0.0
2017-Dec-08 01:00N 41°12' W 008°41'0 0.0
2017-Dec-08 00:30N 41°12' W 008°41'0 0.0
2017-Dec-08 00:00N 41°12' W 008°41'0 0.0
2017-Dec-07 23:30N 41°12' W 008°41'0 0.0
2017-Dec-07 23:00N 41°12' W 008°41'0 0.0
2017-Dec-07 22:30N 41°12' W 008°41'0 0.0
2017-Dec-07 22:00N 41°12' W 008°41'0 0.0
2017-Dec-07 21:30N 41°12' W 008°41'0 0.0
2017-Dec-07 21:00N 41°12' W 008°41'0 0.0
2017-Dec-07 20:30N 41°12' W 008°41'0 0.0
2017-Dec-07 20:00N 41°12' W 008°41'0 0.0
2017-Dec-07 19:27N 41°12' W 008°41'0 0.0
2017-Dec-07 19:00N 41°12' W 008°41'0 0.0
2017-Dec-07 18:30N 41°12' W 008°41'0 0.0
2017-Dec-07 18:00N 41°12' W 008°41'0 0.0
2017-Dec-07 17:27N 41°12' W 008°41'0 0.0
2017-Dec-07 16:57N 41°12' W 008°41'0 0.0
2017-Dec-07 16:30N 41°12' W 008°41'0 0.0
2017-Dec-07 16:00N 41°12' W 008°41'0 0.0
2017-Dec-07 15:30N 41°12' W 008°41'0 0.0
2017-Dec-07 15:00N 41°12' W 008°41'0 0.0
2017-Dec-07 14:30N 41°12' W 008°41'0 0.3
2017-Dec-07 14:00N 41°12' W 008°41'2 4.3
2017-Dec-07 13:30N 41°10' W 008°43'611.7
2017-Dec-07 13:00N 41°13' W 008°50'  
Track history (hours):
 
Tides and Currents Weather Stations Pressure Air Temp Water Temp Dewpoint Dewpoint Depression Visibility Wind Speed Wind Dir Waves Ship Positions

Berit

Last reported at 2017-Dec-16 12:30 UTC. Time now 2017-Dec-16 12:51 UTC.
Position N 53°28' W 003°02'.

Length 135 m; draft 6.9 m.

Type: Cargo ship. MMSI: 209176832.

Date/timePositionNaut miles runAvg speedWind from/ knotsBaromVisibWave heightAir tempDewpointWater temp
2017-Dec-16 12:30N 53°28' W 003°02'0 0.0
2017-Dec-16 12:00N 53°28' W 003°02'0 0.0
2017-Dec-16 11:30N 53°28' W 003°02'0 0.0
2017-Dec-16 11:00N 53°28' W 003°02'0 0.0
2017-Dec-16 10:30N 53°28' W 003°02'0 0.0
2017-Dec-16 10:00N 53°28' W 003°02'0 0.0
2017-Dec-16 09:30N 53°28' W 003°02'0 0.0
2017-Dec-16 09:00N 53°28' W 003°02'0 0.0
2017-Dec-16 08:30N 53°28' W 003°02'0 0.0
2017-Dec-16 08:00N 53°28' W 003°02'0 0.0
2017-Dec-16 07:30N 53°28' W 003°02'0 0.0
2017-Dec-16 07:00N 53°28' W 003°02'0 0.0
2017-Dec-16 06:30N 53°28' W 003°02'0 0.0
2017-Dec-16 06:00N 53°28' W 003°02'0 0.0
2017-Dec-16 05:30N 53°28' W 003°02'0 0.0
2017-Dec-16 05:00N 53°28' W 003°02'0 0.0
2017-Dec-16 04:30N 53°28' W 003°02'0 0.0
2017-Dec-16 04:00N 53°28' W 003°02'0 0.0
2017-Dec-16 03:30N 53°28' W 003°02'0 0.0
2017-Dec-16 03:00N 53°28' W 003°02'0 0.0
2017-Dec-16 02:30N 53°28' W 003°02'0 0.0
2017-Dec-16 02:00N 53°28' W 003°02'0 0.0
2017-Dec-16 01:30N 53°28' W 003°02'0 0.0
2017-Dec-16 01:00N 53°28' W 003°02'0 0.0
2017-Dec-16 00:30N 53°28' W 003°02'0 0.0
2017-Dec-16 00:00N 53°28' W 003°02'0 0.0
2017-Dec-15 23:30N 53°28' W 003°02'0 0.0
2017-Dec-15 23:00N 53°28' W 003°02'0 0.0
2017-Dec-15 22:30N 53°28' W 003°02'0 0.0
2017-Dec-15 22:00N 53°28' W 003°02'0 0.0
2017-Dec-15 21:30N 53°28' W 003°02'0 0.0
2017-Dec-15 21:00N 53°28' W 003°02'0 0.0
2017-Dec-15 20:30N 53°28' W 003°02'0 0.0
2017-Dec-15 20:00N 53°28' W 003°02'0 0.0
2017-Dec-15 19:30N 53°28' W 003°02'0 0.1
2017-Dec-15 19:00N 53°28' W 003°02'0 0.4
2017-Dec-15 18:28N 53°28' W 003°02'0 0.0
2017-Dec-15 17:58N 53°28' W 003°02'0 0.0
2017-Dec-15 17:28N 53°28' W 003°02'0 0.0
2017-Dec-15 16:58N 53°28' W 003°02'0 0.0
2017-Dec-15 16:28N 53°28' W 003°02'0 0.0
2017-Dec-15 15:58N 53°28' W 003°02'0 0.0
2017-Dec-15 15:28N 53°28' W 003°02'0 0.0
2017-Dec-15 14:58N 53°28' W 003°02'0 0.0
2017-Dec-15 14:28N 53°28' W 003°02'0 0.0
2017-Dec-15 13:58N 53°28' W 003°02'0 0.0
2017-Dec-15 13:28N 53°28' W 003°02'0 0.0
2017-Dec-15 12:58N 53°28' W 003°02'0 0.0
2017-Dec-15 12:28N 53°28' W 003°02'0 0.0
2017-Dec-15 11:58N 53°28' W 003°02'1 1.4
2017-Dec-15 11:29N 53°27' W 003°01'0 0.2
2017-Dec-15 11:00N 53°27' W 003°01'0 0.3
2017-Dec-15 10:30N 53°27' W 003°01'3 5.2
2017-Dec-15 10:00N 53°29' W 003°05'510.1
2017-Dec-15 09:30N 53°31' W 003°12'510.7
2017-Dec-15 09:00N 53°33' W 003°20'2 3.3
2017-Dec-15 08:31N 53°31' W 003°20'611.4
2017-Dec-15 08:00N 53°31' W 003°29'817.0
2017-Dec-15 07:30N 53°30' W 003°43'918.3
2017-Dec-15 07:00N 53°27' W 003°58'155 4.9
2017-Dec-13 23:21N 51°09' W 005°51'411.1
2017-Dec-13 22:58N 51°04' W 005°52'511.2
2017-Dec-13 22:30N 50°59' W 005°52'611.4
2017-Dec-13 21:59N 50°53' W 005°53'611.1
2017-Dec-13 21:27N 50°47' W 005°53'510.8
2017-Dec-13 21:00N 50°42' W 005°53'510.8
2017-Dec-13 20:30N 50°37' W 005°54'510.5
2017-Dec-13 20:00N 50°32' W 005°54'510.5
2017-Dec-13 19:30N 50°27' W 005°54'5 9.9
2017-Dec-13 18:59N 50°22' W 005°54'5 9.8
2017-Dec-13 18:30N 50°17' W 005°54'5 9.8
2017-Dec-13 18:00N 50°12' W 005°54'510.2
2017-Dec-13 17:30N 50°07' W 005°54'66115.4
2017-Dec-11 22:38N 39°28' W 009°50'211.1
2017-Dec-11 22:27N 39°26' W 009°50'511.1
2017-Dec-11 22:00N 39°21' W 009°51'510.7
2017-Dec-11 21:30N 39°16' W 009°51'610.9
2017-Dec-11 21:00N 39°10' W 009°50'510.9
2017-Dec-11 20:30N 39°05' W 009°50'510.3
2017-Dec-11 20:00N 38°60' W 009°51'510.4
2017-Dec-11 19:30N 38°54' W 009°51'5 9.9
2017-Dec-11 19:00N 38°49' W 009°51'510.8
2017-Dec-11 18:30N 38°44' W 009°50'612.0
2017-Dec-11 18:00N 38°38' W 009°48'5 9.9
2017-Dec-11 17:30N 38°34' W 009°45'611.5
2017-Dec-11 17:00N 38°31' W 009°39'510.3
2017-Dec-11 16:30N 38°29' W 009°33'5 9.4
2017-Dec-11 16:01N 38°26' W 009°28'611.5
2017-Dec-11 15:31N 38°22' W 009°22'611.9
2017-Dec-11 15:00N 38°21' W 009°15'713.1
2017-Dec-11 14:30N 38°22' W 009°07'4 9.0
2017-Dec-11 14:00N 38°25' W 009°02'714.3
2017-Dec-11 13:30N 38°30' W 008°55'2 4.7
2017-Dec-11 12:59N 38°31' W 008°52'0 0.0
2017-Dec-11 12:26N 38°31' W 008°52'0 0.0
2017-Dec-11 11:53N 38°31' W 008°52'0 0.0
2017-Dec-11 11:26N 38°31' W 008°52'0 0.0
2017-Dec-11 11:00N 38°31' W 008°52'0 0.0
2017-Dec-11 10:30N 38°31' W 008°52'0 0.0
2017-Dec-11 10:00N 38°31' W 008°52'0 0.0
2017-Dec-11 09:30N 38°31' W 008°52'0 0.0
2017-Dec-11 09:00N 38°31' W 008°52'0 0.0
2017-Dec-11 08:30N 38°31' W 008°52'0 0.0
2017-Dec-11 08:00N 38°31' W 008°52'0 0.0
2017-Dec-11 07:30N 38°31' W 008°52'0 0.0
2017-Dec-11 07:00N 38°31' W 008°52'0 0.0
2017-Dec-11 06:30N 38°31' W 008°52'0 0.0
2017-Dec-11 06:00N 38°31' W 008°52'0 0.0
2017-Dec-11 05:30N 38°31' W 008°52'0 0.0
2017-Dec-11 05:00N 38°31' W 008°52'0 0.0
2017-Dec-11 04:30N 38°31' W 008°52'0 0.0
2017-Dec-11 04:00N 38°31' W 008°52'0 0.0
2017-Dec-11 03:30N 38°31' W 008°52'0 0.0
2017-Dec-11 03:00N 38°31' W 008°52'0 0.0
2017-Dec-11 02:30N 38°31' W 008°52'0 0.0
2017-Dec-11 02:00N 38°31' W 008°52'0 0.0
2017-Dec-11 01:30N 38°31' W 008°52'0 0.0
2017-Dec-11 01:00N 38°31' W 008°52'0 0.0
2017-Dec-11 00:30N 38°31' W 008°52'0 0.0
2017-Dec-11 00:00N 38°31' W 008°52'0 0.0
2017-Dec-10 23:30N 38°31' W 008°52'0 0.0
2017-Dec-10 23:00N 38°31' W 008°52'0 0.0
2017-Dec-10 22:30N 38°31' W 008°52'0 0.0
2017-Dec-10 22:01N 38°31' W 008°52'0 0.0
2017-Dec-10 21:31N 38°31' W 008°52'0 0.0
2017-Dec-10 21:01N 38°31' W 008°52'0 0.0
2017-Dec-10 20:30N 38°31' W 008°52'0 0.0
2017-Dec-10 20:00N 38°31' W 008°52'0 0.0
2017-Dec-10 19:30N 38°31' W 008°52'0 0.0
2017-Dec-10 19:00N 38°31' W 008°52'0 0.0
2017-Dec-10 18:30N 38°31' W 008°52'0 0.0
2017-Dec-10 18:00N 38°31' W 008°52'0 0.0
2017-Dec-10 17:30N 38°31' W 008°52'0 0.0
2017-Dec-10 17:00N 38°31' W 008°52'0 0.0
2017-Dec-10 16:30N 38°31' W 008°52'0 0.0
2017-Dec-10 16:00N 38°31' W 008°52'0 0.0
2017-Dec-10 15:30N 38°31' W 008°52'0 0.0
2017-Dec-10 15:00N 38°31' W 008°52'0 0.0
2017-Dec-10 14:30N 38°31' W 008°52'0 0.0
2017-Dec-10 14:00N 38°31' W 008°52'0 0.0
2017-Dec-10 13:30N 38°31' W 008°52'0 0.0
2017-Dec-10 13:00N 38°31' W 008°52'0 0.0
2017-Dec-10 12:30N 38°31' W 008°52'0 0.0
2017-Dec-10 12:00N 38°31' W 008°52'0 0.0
2017-Dec-10 11:30N 38°31' W 008°52'0 0.0
2017-Dec-10 11:00N 38°31' W 008°52'0 0.0
2017-Dec-10 10:30N 38°31' W 008°52'0 0.0
2017-Dec-10 10:00N 38°31' W 008°52'0 0.0
2017-Dec-10 09:30N 38°31' W 008°52'0 0.0
2017-Dec-10 09:00N 38°31' W 008°52'0 0.0
2017-Dec-10 08:31N 38°31' W 008°52'0 0.0
2017-Dec-10 08:00N 38°31' W 008°52'0 0.0
2017-Dec-10 07:31N 38°31' W 008°52'0 0.0
2017-Dec-10 07:00N 38°31' W 008°52'0 0.3
2017-Dec-10 06:30N 38°31' W 008°52'4 8.1
2017-Dec-10 06:00N 38°28' W 008°57'611.7
2017-Dec-10 05:30N 38°23' W 009°00'714.2
2017-Dec-10 05:00N 38°16' W 008°60'816.1
2017-Dec-10 04:30N 38°08' W 008°59'917.0
2017-Dec-10 04:00N 38°00' W 008°56'713.3
2017-Dec-10 03:30N 37°55' W 008°51'1 2.8
2017-Dec-10 03:00N 37°56' W 008°51'0 0.0
2017-Dec-10 02:30N 37°56' W 008°51'0 0.0
2017-Dec-10 01:48N 37°56' W 008°51'0 0.0
2017-Dec-10 01:27N 37°56' W 008°51'0 0.0
2017-Dec-10 01:00N 37°56' W 008°51'0 0.0
2017-Dec-10 00:30N 37°56' W 008°51'0 0.0
2017-Dec-10 00:00N 37°56' W 008°51'0 0.0
2017-Dec-09 23:27N 37°56' W 008°51'0 0.0
2017-Dec-09 23:00N 37°56' W 008°51'0 0.0
2017-Dec-09 22:30N 37°56' W 008°51'0 0.0
2017-Dec-09 22:00N 37°56' W 008°51'0 0.0
2017-Dec-09 21:30N 37°56' W 008°51'0 0.0
2017-Dec-09 20:57N 37°56' W 008°51'0 0.0
2017-Dec-09 20:30N 37°56' W 008°51'0 0.0
2017-Dec-09 20:00N 37°56' W 008°51'0 0.0
2017-Dec-09 19:27N 37°56' W 008°51'0 0.0
2017-Dec-09 18:51N 37°56' W 008°51'0 0.0
2017-Dec-09 18:30N 37°56' W 008°51'0 0.0
2017-Dec-09 18:00N 37°56' W 008°51'0 0.0
2017-Dec-09 17:27N 37°56' W 008°51'0 0.0
2017-Dec-09 16:57N 37°56' W 008°51'0 0.0
2017-Dec-09 16:24N 37°56' W 008°51'0 0.0
2017-Dec-09 16:00N 37°56' W 008°51'0 0.0
2017-Dec-09 15:30N 37°56' W 008°51'0 0.0
2017-Dec-09 14:57N 37°56' W 008°51'0 0.0
2017-Dec-09 14:30N 37°56' W 008°51'0 0.0
2017-Dec-09 14:00N 37°56' W 008°51'0 0.0
2017-Dec-09 13:30N 37°56' W 008°51'0 1.0
2017-Dec-09 13:00N 37°56' W 008°51'4 7.3
2017-Dec-09 12:31N 37°56' W 008°55'918.7
2017-Dec-09 12:01N 38°03' W 009°03'918.7
2017-Dec-09 11:31N 38°10' W 009°11'918.7
2017-Dec-09 11:01N 38°17' W 009°19'918.2
2017-Dec-09 10:30N 38°25' W 009°26'917.3
2017-Dec-09 10:01N 38°31' W 009°33'917.4
2017-Dec-09 09:30N 38°37' W 009°41'816.8
2017-Dec-09 09:01N 38°45' W 009°43'917.5
2017-Dec-09 08:30N 38°54' W 009°43'918.0
2017-Dec-09 08:01N 39°03' W 009°43'917.6
2017-Dec-09 07:30N 39°12' W 009°42'817.0
2017-Dec-09 07:01N 39°20' W 009°43'917.0
2017-Dec-09 06:31N 39°29' W 009°43'9717.1
2017-Dec-09 00:49N 40°58' W 008°51'618.1
2017-Dec-09 00:30N 41°03' W 008°48'816.1
2017-Dec-09 00:00N 41°10' W 008°42'2 3.7
2017-Dec-08 23:28N 41°12' W 008°41'0 0.0
2017-Dec-08 22:58N 41°12' W 008°41'0 0.0
2017-Dec-08 22:25N 41°12' W 008°41'0 0.0
2017-Dec-08 21:58N 41°12' W 008°41'0 0.0
2017-Dec-08 21:28N 41°12' W 008°41'0 0.0
2017-Dec-08 20:58N 41°12' W 008°41'0 0.0
2017-Dec-08 20:28N 41°12' W 008°41'0 0.0
2017-Dec-08 19:58N 41°12' W 008°41'0 0.0
2017-Dec-08 19:28N 41°12' W 008°41'0 0.0
2017-Dec-08 18:58N 41°12' W 008°41'0 0.0
2017-Dec-08 18:28N 41°12' W 008°41'0 0.0
2017-Dec-08 17:58N 41°12' W 008°41'0 0.0
2017-Dec-08 17:28N 41°12' W 008°41'0 0.0
2017-Dec-08 16:49N 41°12' W 008°41'0 0.0
2017-Dec-08 16:28N 41°12' W 008°41'0 0.0
2017-Dec-08 15:58N 41°12' W 008°41'0 0.0
2017-Dec-08 15:28N 41°12' W 008°41'0 0.0
2017-Dec-08 14:58N 41°12' W 008°41'0 0.0
2017-Dec-08 14:28N 41°12' W 008°41'0 0.0
2017-Dec-08 13:58N 41°12' W 008°41'0 0.0
2017-Dec-08 13:28N 41°12' W 008°41'0 0.0
2017-Dec-08 12:58N 41°12' W 008°41'0 0.0
2017-Dec-08 12:28N 41°12' W 008°41'0 0.0
2017-Dec-08 11:58N 41°12' W 008°41'0 0.0
2017-Dec-08 11:28N 41°12' W 008°41'0 0.0
2017-Dec-08 10:58N 41°12' W 008°41'0 0.0
2017-Dec-08 10:22N 41°12' W 008°41'0 0.0
2017-Dec-08 09:58N 41°12' W 008°41'0 0.0
2017-Dec-08 09:28N 41°12' W 008°41'0 0.0
2017-Dec-08 08:58N 41°12' W 008°41'0 0.0
2017-Dec-08 08:28N 41°12' W 008°41'0 0.0
2017-Dec-08 07:58N 41°12' W 008°41'0 0.0
2017-Dec-08 07:28N 41°12' W 008°41'0 0.0
2017-Dec-08 06:58N 41°12' W 008°41'0 0.0
2017-Dec-08 06:28N 41°12' W 008°41'0 0.0
2017-Dec-08 05:58N 41°12' W 008°41'0 0.0
2017-Dec-08 05:28N 41°12' W 008°41'0 0.0
2017-Dec-08 04:58N 41°12' W 008°41'0 0.0
2017-Dec-08 04:28N 41°12' W 008°41'0 0.0
2017-Dec-08 04:00N 41°12' W 008°41'0 0.0
2017-Dec-08 03:27N 41°12' W 008°41'0 0.0
2017-Dec-08 03:00N 41°12' W 008°41'0 0.0
2017-Dec-08 02:30N 41°12' W 008°41'0 0.0
2017-Dec-08 01:57N 41°12' W 008°41'0 0.0
2017-Dec-08 01:30N 41°12' W 008°41'0 0.0
2017-Dec-08 01:00N 41°12' W 008°41'0 0.0
2017-Dec-08 00:30N 41°12' W 008°41'0 0.0
2017-Dec-08 00:00N 41°12' W 008°41'0 0.0
2017-Dec-07 23:30N 41°12' W 008°41'0 0.0
2017-Dec-07 23:00N 41°12' W 008°41'0 0.0
2017-Dec-07 22:30N 41°12' W 008°41'0 0.0
2017-Dec-07 22:00N 41°12' W 008°41'0 0.0
2017-Dec-07 21:30N 41°12' W 008°41'0 0.0
2017-Dec-07 21:00N 41°12' W 008°41'0 0.0
2017-Dec-07 20:30N 41°12' W 008°41'0 0.0
2017-Dec-07 20:00N 41°12' W 008°41'0 0.0
2017-Dec-07 19:27N 41°12' W 008°41'0 0.0
2017-Dec-07 19:00N 41°12' W 008°41'0 0.0
2017-Dec-07 18:30N 41°12' W 008°41'0 0.0
2017-Dec-07 18:00N 41°12' W 008°41'0 0.0
2017-Dec-07 17:27N 41°12' W 008°41'0 0.0
2017-Dec-07 16:57N 41°12' W 008°41'0 0.0
2017-Dec-07 16:30N 41°12' W 008°41'0 0.0
2017-Dec-07 16:00N 41°12' W 008°41'0 0.0
2017-Dec-07 15:30N 41°12' W 008°41'0 0.0
2017-Dec-07 15:00N 41°12' W 008°41'0 0.0
2017-Dec-07 14:30N 41°12' W 008°41'0 0.3
2017-Dec-07 14:00N 41°12' W 008°41'2 4.3
2017-Dec-07 13:30N 41°10' W 008°43'611.7
2017-Dec-07 13:00N 41°13' W 008°50'  

Dump ship's entire track history